sensor_id;sensor_type;location;lat;lon;timestamp;temperature;humidity
46766;DHT22;32527;51.986;5.842;2022-10-31T00:02:08;12.50;99.90
46766;DHT22;32527;51.986;5.842;2022-10-31T00:04:33;12.10;99.90
46766;DHT22;32527;51.986;5.842;2022-10-31T00:06:59;11.80;99.90
46766;DHT22;32527;51.986;5.842;2022-10-31T00:09:24;12.30;99.90
46766;DHT22;32527;51.986;5.842;2022-10-31T00:11:50;12.10;99.90
46766;DHT22;32527;51.986;5.842;2022-10-31T00:14:16;11.90;99.90
46766;DHT22;32527;51.986;5.842;2022-10-31T00:16:41;12.30;99.90
46766;DHT22;32527;51.986;5.842;2022-10-31T00:19:07;12.00;99.90
46766;DHT22;32527;51.986;5.842;2022-10-31T00:21:34;11.80;99.90
46766;DHT22;32527;51.986;5.842;2022-10-31T00:24:01;12.10;99.90
46766;DHT22;32527;51.986;5.842;2022-10-31T00:26:28;12.30;99.90
46766;DHT22;32527;51.986;5.842;2022-10-31T00:28:54;11.80;99.90
46766;DHT22;32527;51.986;5.842;2022-10-31T00:31:20;11.80;99.90
46766;DHT22;32527;51.986;5.842;2022-10-31T00:33:45;12.40;99.90
46766;DHT22;32527;51.986;5.842;2022-10-31T00:36:14;13.10;99.90
46766;DHT22;32527;51.986;5.842;2022-10-31T00:38:41;12.40;99.90
46766;DHT22;32527;51.986;5.842;2022-10-31T00:41:07;12.00;99.90
46766;DHT22;32527;51.986;5.842;2022-10-31T00:50:52;11.60;99.90
46766;DHT22;32527;51.986;5.842;2022-10-31T00:53:18;12.30;99.90
46766;DHT22;32527;51.986;5.842;2022-10-31T00:55:43;12.10;99.90
46766;DHT22;32527;51.986;5.842;2022-10-31T01:00:38;12.10;99.90
46766;DHT22;32527;51.986;5.842;2022-10-31T01:03:04;12.30;99.90
46766;DHT22;32527;51.986;5.842;2022-10-31T01:05:29;12.10;99.90
46766;DHT22;32527;51.986;5.842;2022-10-31T01:07:55;12.40;99.90
46766;DHT22;32527;51.986;5.842;2022-10-31T01:10:21;12.30;99.90
46766;DHT22;32527;51.986;5.842;2022-10-31T01:12:48;11.90;99.90
46766;DHT22;32527;51.986;5.842;2022-10-31T01:15:16;12.00;99.90
46766;DHT22;32527;51.986;5.842;2022-10-31T01:17:42;12.30;99.90
46766;DHT22;32527;51.986;5.842;2022-10-31T01:20:11;12.00;99.90
46766;DHT22;32527;51.986;5.842;2022-10-31T01:22:37;11.80;99.90
46766;DHT22;32527;51.986;5.842;2022-10-31T01:25:04;12.40;99.90
46766;DHT22;32527;51.986;5.842;2022-10-31T01:27:31;12.20;99.90
46766;DHT22;32527;51.986;5.842;2022-10-31T01:34:50;11.90;99.90
46766;DHT22;32527;51.986;5.842;2022-10-31T01:37:16;12.40;99.90
46766;DHT22;32527;51.986;5.842;2022-10-31T01:39:41;12.20;99.90
46766;DHT22;32527;51.986;5.842;2022-10-31T01:42:12;12.30;99.90
46766;DHT22;32527;51.986;5.842;2022-10-31T01:47:16;12.00;99.90
46766;DHT22;32527;51.986;5.842;2022-10-31T01:49:46;11.50;99.90
46766;DHT22;32527;51.986;5.842;2022-10-31T01:52:21;11.60;99.90
46766;DHT22;32527;51.986;5.842;2022-10-31T01:54:51;11.50;99.90
46766;DHT22;32527;51.986;5.842;2022-10-31T01:57:20;11.30;99.90
46766;DHT22;32527;51.986;5.842;2022-10-31T01:59:55;11.70;99.90
46766;DHT22;32527;51.986;5.842;2022-10-31T02:02:22;11.90;99.90
46766;DHT22;32527;51.986;5.842;2022-10-31T02:04:48;12.00;99.90
46766;DHT22;32527;51.986;5.842;2022-10-31T02:07:22;11.30;99.90
46766;DHT22;32527;51.986;5.842;2022-10-31T02:09:49;11.40;99.90
46766;DHT22;32527;51.986;5.842;2022-10-31T02:12:16;11.70;99.90
46766;DHT22;32527;51.986;5.842;2022-10-31T02:14:44;11.30;99.90
46766;DHT22;32527;51.986;5.842;2022-10-31T02:17:09;11.80;99.90
46766;DHT22;32527;51.986;5.842;2022-10-31T02:19:51;11.50;99.90
46766;DHT22;32527;51.986;5.842;2022-10-31T02:22:24;11.70;99.90
46766;DHT22;32527;51.986;5.842;2022-10-31T02:25:22;11.20;99.90
46766;DHT22;32527;51.986;5.842;2022-10-31T02:34:01;11.70;99.90
46766;DHT22;32527;51.986;5.842;2022-10-31T02:36:43;11.30;99.90
46766;DHT22;32527;51.986;5.842;2022-10-31T02:39:36;11.10;99.90
46766;DHT22;32527;51.986;5.842;2022-10-31T02:42:13;11.20;99.90
46766;DHT22;32527;51.986;5.842;2022-10-31T02:47:29;11.00;99.90
46766;DHT22;32527;51.986;5.842;2022-10-31T02:50:21;11.20;99.90
46766;DHT22;32527;51.986;5.842;2022-10-31T02:52:52;11.10;99.90
46766;DHT22;32527;51.986;5.842;2022-10-31T02:58:14;10.80;99.90
46766;DHT22;32527;51.986;5.842;2022-10-31T03:00:42;11.00;99.90
46766;DHT22;32527;51.986;5.842;2022-10-31T03:03:36;10.70;99.90
46766;DHT22;32527;51.986;5.842;2022-10-31T03:06:20;11.20;99.90
46766;DHT22;32527;51.986;5.842;2022-10-31T03:09:20;11.30;99.90
46766;DHT22;32527;51.986;5.842;2022-10-31T03:12:04;10.80;99.90
46766;DHT22;32527;51.986;5.842;2022-10-31T03:14:40;10.70;99.90
46766;DHT22;32527;51.986;5.842;2022-10-31T03:17:11;10.50;99.90
46766;DHT22;32527;51.986;5.842;2022-10-31T03:19:41;11.10;99.90
46766;DHT22;32527;51.986;5.842;2022-10-31T03:24:43;10.70;99.90
46766;DHT22;32527;51.986;5.842;2022-10-31T03:27:12;10.70;99.90
46766;DHT22;32527;51.986;5.842;2022-10-31T03:29:40;10.70;99.90
46766;DHT22;32527;51.986;5.842;2022-10-31T03:32:21;10.40;99.90
46766;DHT22;32527;51.986;5.842;2022-10-31T03:34:52;10.80;99.90
46766;DHT22;32527;51.986;5.842;2022-10-31T03:37:20;10.60;99.90
46766;DHT22;32527;51.986;5.842;2022-10-31T03:39:48;10.70;99.90
46766;DHT22;32527;51.986;5.842;2022-10-31T03:42:22;10.40;99.90
46766;DHT22;32527;51.986;5.842;2022-10-31T03:44:59;10.80;99.90
46766;DHT22;32527;51.986;5.842;2022-10-31T03:47:27;10.20;99.90
46766;DHT22;32527;51.986;5.842;2022-10-31T03:59:35;10.40;99.90
46766;DHT22;32527;51.986;5.842;2022-10-31T04:02:30;10.30;99.90
46766;DHT22;32527;51.986;5.842;2022-10-31T04:05:20;10.30;99.90
46766;DHT22;32527;51.986;5.842;2022-10-31T04:08:07;10.30;99.90
46766;DHT22;32527;51.986;5.842;2022-10-31T04:11:01;10.30;99.90
46766;DHT22;32527;51.986;5.842;2022-10-31T04:13:39;10.30;99.90
46766;DHT22;32527;51.986;5.842;2022-10-31T04:16:32;10.30;99.90
46766;DHT22;32527;51.986;5.842;2022-10-31T04:19:58;10.30;99.90
46766;DHT22;32527;51.986;5.842;2022-10-31T04:27:00;10.20;99.90
46766;DHT22;32527;51.986;5.842;2022-10-31T04:29:52;10.30;99.90
46766;DHT22;32527;51.986;5.842;2022-10-31T04:33:44;10.30;99.90
46766;DHT22;32527;51.986;5.842;2022-10-31T04:37:19;10.40;99.90
46766;DHT22;32527;51.986;5.842;2022-10-31T04:40:34;10.40;99.90
46766;DHT22;32527;51.986;5.842;2022-10-31T04:43:24;10.30;99.90
46766;DHT22;32527;51.986;5.842;2022-10-31T04:46:51;10.30;99.90
46766;DHT22;32527;51.986;5.842;2022-10-31T04:50:25;10.30;99.90
46766;DHT22;32527;51.986;5.842;2022-10-31T04:56:09;10.30;99.90
46766;DHT22;32527;51.986;5.842;2022-10-31T05:03:08;10.30;99.90
46766;DHT22;32527;51.986;5.842;2022-10-31T05:06:27;10.20;99.90
46766;DHT22;32527;51.986;5.842;2022-10-31T05:12:31;10.20;99.90
46766;DHT22;32527;51.986;5.842;2022-10-31T05:15:49;10.10;99.90
46766;DHT22;32527;51.986;5.842;2022-10-31T05:18:47;10.10;99.90
46766;DHT22;32527;51.986;5.842;2022-10-31T05:27:12;10.50;99.90
46766;DHT22;32527;51.986;5.842;2022-10-31T05:29:38;10.30;99.90
46766;DHT22;32527;51.986;5.842;2022-10-31T05:32:03;10.10;99.90
46766;DHT22;32527;51.986;5.842;2022-10-31T05:35:06;10.00;99.90
46766;DHT22;32527;51.986;5.842;2022-10-31T05:40:20;10.30;99.90
46766;DHT22;32527;51.986;5.842;2022-10-31T05:42:50;10.10;99.90
46766;DHT22;32527;51.986;5.842;2022-10-31T05:45:17;10.30;99.90
46766;DHT22;32527;51.986;5.842;2022-10-31T05:48:00;10.10;99.90
46766;DHT22;32527;51.986;5.842;2022-10-31T05:55:37;10.80;99.90
46766;DHT22;32527;51.986;5.842;2022-10-31T06:00:58;10.60;99.90
46766;DHT22;32527;51.986;5.842;2022-10-31T06:03:24;10.90;99.90
46766;DHT22;32527;51.986;5.842;2022-10-31T06:08:21;10.40;99.90
46766;DHT22;32527;51.986;5.842;2022-10-31T06:13:19;10.30;99.90
46766;DHT22;32527;51.986;5.842;2022-10-31T06:16:05;10.70;99.90
46766;DHT22;32527;51.986;5.842;2022-10-31T06:21:01;10.30;99.90
46766;DHT22;32527;51.986;5.842;2022-10-31T06:23:27;10.50;99.90
46766;DHT22;32527;51.986;5.842;2022-10-31T06:26:13;10.00;99.90
46766;DHT22;32527;51.986;5.842;2022-10-31T06:28:39;10.60;99.90
46766;DHT22;32527;51.986;5.842;2022-10-31T06:31:28;10.50;99.90
46766;DHT22;32527;51.986;5.842;2022-10-31T06:36:20;10.20;99.90
46766;DHT22;32527;51.986;5.842;2022-10-31T06:38:46;10.40;99.90
46766;DHT22;32527;51.986;5.842;2022-10-31T06:43:46;9.80;99.90
46766;DHT22;32527;51.986;5.842;2022-10-31T06:56:51;10.30;99.90
46766;DHT22;32527;51.986;5.842;2022-10-31T07:04:30;10.40;99.90
46766;DHT22;32527;51.986;5.842;2022-10-31T07:24:26;10.60;99.90
46766;DHT22;32527;51.986;5.842;2022-10-31T07:27:28;10.90;99.90
46766;DHT22;32527;51.986;5.842;2022-10-31T07:32:20;11.10;99.90
46766;DHT22;32527;51.986;5.842;2022-10-31T07:34:51;11.20;99.90
46766;DHT22;32527;51.986;5.842;2022-10-31T07:37:31;11.50;99.90
46766;DHT22;32527;51.986;5.842;2022-10-31T07:39:58;11.50;99.90
46766;DHT22;32527;51.986;5.842;2022-10-31T07:42:24;11.30;99.90
46766;DHT22;32527;51.986;5.842;2022-10-31T07:47:42;12.00;99.90
46766;DHT22;32527;51.986;5.842;2022-10-31T07:50:30;12.00;99.90
46766;DHT22;32527;51.986;5.842;2022-10-31T07:53:15;11.90;99.90
46766;DHT22;32527;51.986;5.842;2022-10-31T07:56:13;12.10;99.90
46766;DHT22;32527;51.986;5.842;2022-10-31T07:58:39;11.80;99.90
46766;DHT22;32527;51.986;5.842;2022-10-31T08:01:06;12.20;99.90
46766;DHT22;32527;51.986;5.842;2022-10-31T08:03:39;12.10;99.90
46766;DHT22;32527;51.986;5.842;2022-10-31T08:06:24;12.20;99.90
46766;DHT22;32527;51.986;5.842;2022-10-31T08:09:08;12.50;99.90
46766;DHT22;32527;51.986;5.842;2022-10-31T08:11:34;12.30;99.90
46766;DHT22;32527;51.986;5.842;2022-10-31T08:14:01;12.70;99.90
46766;DHT22;32527;51.986;5.842;2022-10-31T08:16:26;12.90;99.90
46766;DHT22;32527;51.986;5.842;2022-10-31T08:18:57;12.50;99.90
46766;DHT22;32527;51.986;5.842;2022-10-31T08:23:49;12.80;99.90
46766;DHT22;32527;51.986;5.842;2022-10-31T08:26:18;13.00;99.90
46766;DHT22;32527;51.986;5.842;2022-10-31T08:28:46;13.20;99.90
46766;DHT22;32527;51.986;5.842;2022-10-31T08:36:21;12.90;99.90
46766;DHT22;32527;51.986;5.842;2022-10-31T08:38:57;13.10;99.90
46766;DHT22;32527;51.986;5.842;2022-10-31T08:43:51;13.20;99.90
46766;DHT22;32527;51.986;5.842;2022-10-31T08:56:28;13.10;99.90
46766;DHT22;32527;51.986;5.842;2022-10-31T09:01:29;14.00;99.90
46766;DHT22;32527;51.986;5.842;2022-10-31T09:06:22;14.00;99.90
46766;DHT22;32527;51.986;5.842;2022-10-31T09:13:58;13.60;99.90
46766;DHT22;32527;51.986;5.842;2022-10-31T09:16:27;14.10;99.90
46766;DHT22;32527;51.986;5.842;2022-10-31T09:21:20;14.50;99.90
46766;DHT22;32527;51.986;5.842;2022-10-31T09:26:12;14.10;99.90
46766;DHT22;32527;51.986;5.842;2022-10-31T09:33:53;14.30;99.90
46766;DHT22;32527;51.986;5.842;2022-10-31T09:36:37;14.80;99.90
46766;DHT22;32527;51.986;5.842;2022-10-31T09:39:06;14.40;99.90
46766;DHT22;32527;51.986;5.842;2022-10-31T09:44:33;15.10;99.90
46766;DHT22;32527;51.986;5.842;2022-10-31T09:47:20;14.40;99.90
46766;DHT22;32527;51.986;5.842;2022-10-31T09:59:00;14.80;99.90
46766;DHT22;32527;51.986;5.842;2022-10-31T10:01:47;15.20;99.90
46766;DHT22;32527;51.986;5.842;2022-10-31T10:22:30;15.50;99.90
46766;DHT22;32527;51.986;5.842;2022-10-31T10:25:22;14.90;99.90
46766;DHT22;32527;51.986;5.842;2022-10-31T10:30:50;14.80;99.90
46766;DHT22;32527;51.986;5.842;2022-10-31T10:33:38;15.40;99.90
46766;DHT22;32527;51.986;5.842;2022-10-31T10:39:16;14.90;99.90
46766;DHT22;32527;51.986;5.842;2022-10-31T10:41:47;14.80;99.90
46766;DHT22;32527;51.986;5.842;2022-10-31T10:44:34;14.80;99.90
46766;DHT22;32527;51.986;5.842;2022-10-31T10:47:21;15.10;99.90
46766;DHT22;32527;51.986;5.842;2022-10-31T10:50:26;15.10;99.90
46766;DHT22;32527;51.986;5.842;2022-10-31T10:53:04;14.70;99.90
46766;DHT22;32527;51.986;5.842;2022-10-31T10:55:42;15.10;99.90
46766;DHT22;32527;51.986;5.842;2022-10-31T10:58:10;14.60;99.90
46766;DHT22;32527;51.986;5.842;2022-10-31T11:00:40;15.60;99.90
46766;DHT22;32527;51.986;5.842;2022-10-31T11:03:06;15.00;99.90
46766;DHT22;32527;51.986;5.842;2022-10-31T11:05:56;15.60;99.90
46766;DHT22;32527;51.986;5.842;2022-10-31T11:08:28;15.40;99.90
46766;DHT22;32527;51.986;5.842;2022-10-31T11:13:44;16.00;99.90
46766;DHT22;32527;51.986;5.842;2022-10-31T11:16:14;16.70;99.90
46766;DHT22;32527;51.986;5.842;2022-10-31T11:18:43;16.50;99.90
46766;DHT22;32527;51.986;5.842;2022-10-31T11:21:39;16.20;99.90
46766;DHT22;32527;51.986;5.842;2022-10-31T11:24:17;16.30;99.90
46766;DHT22;32527;51.986;5.842;2022-10-31T11:26:45;16.40;99.90
46766;DHT22;32527;51.986;5.842;2022-10-31T11:29:21;17.00;99.90
46766;DHT22;32527;51.986;5.842;2022-10-31T11:31:51;16.70;99.90
46766;DHT22;32527;51.986;5.842;2022-10-31T11:34:31;16.40;99.90
46766;DHT22;32527;51.986;5.842;2022-10-31T11:37:15;16.60;99.90
46766;DHT22;32527;51.986;5.842;2022-10-31T11:39:44;16.70;99.90
46766;DHT22;32527;51.986;5.842;2022-10-31T11:42:10;16.30;99.90
46766;DHT22;32527;51.986;5.842;2022-10-31T11:44:37;17.00;99.90
46766;DHT22;32527;51.986;5.842;2022-10-31T11:47:13;16.80;99.90
46766;DHT22;32527;51.986;5.842;2022-10-31T11:49:42;17.10;99.90
46766;DHT22;32527;51.986;5.842;2022-10-31T11:52:25;17.30;99.90
46766;DHT22;32527;51.986;5.842;2022-10-31T11:57:25;16.60;99.90
46766;DHT22;32527;51.986;5.842;2022-10-31T11:59:53;17.20;99.90
46766;DHT22;32527;51.986;5.842;2022-10-31T12:02:19;16.60;99.90
46766;DHT22;32527;51.986;5.842;2022-10-31T12:04:53;16.80;99.90
46766;DHT22;32527;51.986;5.842;2022-10-31T12:07:23;16.30;99.90
46766;DHT22;32527;51.986;5.842;2022-10-31T12:09:48;16.70;99.90
46766;DHT22;32527;51.986;5.842;2022-10-31T12:12:27;17.50;99.90
46766;DHT22;32527;51.986;5.842;2022-10-31T12:15:20;16.50;99.90
46766;DHT22;32527;51.986;5.842;2022-10-31T12:20:59;16.70;99.90
46766;DHT22;32527;51.986;5.842;2022-10-31T12:26:25;17.20;99.90
46766;DHT22;32527;51.986;5.842;2022-10-31T12:32:09;16.80;99.90
46766;DHT22;32527;51.986;5.842;2022-10-31T12:37:42;16.90;99.90
46766;DHT22;32527;51.986;5.842;2022-10-31T12:43:13;17.60;99.90
46766;DHT22;32527;51.986;5.842;2022-10-31T12:48:46;16.70;99.90
46766;DHT22;32527;51.986;5.842;2022-10-31T12:56:51;18.40;99.90
46766;DHT22;32527;51.986;5.842;2022-10-31T12:59:40;17.90;99.90
46766;DHT22;32527;51.986;5.842;2022-10-31T13:02:36;17.70;99.90
46766;DHT22;32527;51.986;5.842;2022-10-31T13:05:36;17.30;99.90
46766;DHT22;32527;51.986;5.842;2022-10-31T13:08:20;17.00;99.90
46766;DHT22;32527;51.986;5.842;2022-10-31T13:11:19;17.90;99.90
46766;DHT22;32527;51.986;5.842;2022-10-31T13:16:43;17.30;99.90
46766;DHT22;32527;51.986;5.842;2022-10-31T13:19:16;17.40;99.90
46766;DHT22;32527;51.986;5.842;2022-10-31T13:21:59;17.10;99.90
46766;DHT22;32527;51.986;5.842;2022-10-31T13:27:24;17.30;99.90
46766;DHT22;32527;51.986;5.842;2022-10-31T13:30:17;17.00;99.90
46766;DHT22;32527;51.986;5.842;2022-10-31T13:32:48;17.00;99.90
46766;DHT22;32527;51.986;5.842;2022-10-31T13:38:33;17.10;99.90
46766;DHT22;32527;51.986;5.842;2022-10-31T13:41:19;16.90;99.90
46766;DHT22;32527;51.986;5.842;2022-10-31T13:46:36;17.70;99.90
46766;DHT22;32527;51.986;5.842;2022-10-31T13:49:03;17.40;99.90
46766;DHT22;32527;51.986;5.842;2022-10-31T13:51:32;17.70;99.90
46766;DHT22;32527;51.986;5.842;2022-10-31T13:54:01;17.10;99.90
46766;DHT22;32527;51.986;5.842;2022-10-31T13:56:33;17.70;99.90
46766;DHT22;32527;51.986;5.842;2022-10-31T14:01:36;17.10;99.90
46766;DHT22;32527;51.986;5.842;2022-10-31T14:04:12;17.10;99.90
46766;DHT22;32527;51.986;5.842;2022-10-31T14:06:50;16.80;99.90
46766;DHT22;32527;51.986;5.842;2022-10-31T14:09:33;16.90;99.90
46766;DHT22;32527;51.986;5.842;2022-10-31T14:12:34;17.20;99.90
46766;DHT22;32527;51.986;5.842;2022-10-31T14:15:17;17.20;99.90
46766;DHT22;32527;51.986;5.842;2022-10-31T14:17:54;17.00;99.90
46766;DHT22;32527;51.986;5.842;2022-10-31T14:20:44;17.30;99.90
46766;DHT22;32527;51.986;5.842;2022-10-31T14:23:32;17.10;99.90
46766;DHT22;32527;51.986;5.842;2022-10-31T14:28:43;16.70;99.90
46766;DHT22;32527;51.986;5.842;2022-10-31T14:33:53;16.90;99.90
46766;DHT22;32527;51.986;5.842;2022-10-31T14:36:25;16.50;99.90
46766;DHT22;32527;51.986;5.842;2022-10-31T14:39:15;16.80;99.90
46766;DHT22;32527;51.986;5.842;2022-10-31T14:41:51;17.10;99.90
46766;DHT22;32527;51.986;5.842;2022-10-31T14:47:14;17.00;99.90
46766;DHT22;32527;51.986;5.842;2022-10-31T14:50:08;16.80;99.90
46766;DHT22;32527;51.986;5.842;2022-10-31T14:52:38;17.00;99.90
46766;DHT22;32527;51.986;5.842;2022-10-31T14:55:07;16.30;99.90
46766;DHT22;32527;51.986;5.842;2022-10-31T14:57:35;16.40;99.90
46766;DHT22;32527;51.986;5.842;2022-10-31T15:00:07;16.60;99.90
46766;DHT22;32527;51.986;5.842;2022-10-31T15:05:08;16.60;99.90
46766;DHT22;32527;51.986;5.842;2022-10-31T15:07:34;16.80;99.90
46766;DHT22;32527;51.986;5.842;2022-10-31T15:10:02;16.70;99.90
46766;DHT22;32527;51.986;5.842;2022-10-31T15:12:30;16.60;99.90
46766;DHT22;32527;51.986;5.842;2022-10-31T15:14:57;16.40;99.90
46766;DHT22;32527;51.986;5.842;2022-10-31T15:17:25;16.50;99.90
46766;DHT22;32527;51.986;5.842;2022-10-31T15:19:52;16.60;99.90
46766;DHT22;32527;51.986;5.842;2022-10-31T15:22:21;16.20;99.90
46766;DHT22;32527;51.986;5.842;2022-10-31T15:24:48;16.50;99.90
46766;DHT22;32527;51.986;5.842;2022-10-31T15:27:16;16.10;99.90
46766;DHT22;32527;51.986;5.842;2022-10-31T15:29:55;16.50;99.90
46766;DHT22;32527;51.986;5.842;2022-10-31T15:32:27;16.00;99.90
46766;DHT22;32527;51.986;5.842;2022-10-31T15:34:54;16.00;99.90
46766;DHT22;32527;51.986;5.842;2022-10-31T15:37:22;16.00;99.90
46766;DHT22;32527;51.986;5.842;2022-10-31T15:44:51;16.10;99.90
46766;DHT22;32527;51.986;5.842;2022-10-31T15:47:20;16.10;99.90
46766;DHT22;32527;51.986;5.842;2022-10-31T15:49:51;16.10;99.90
46766;DHT22;32527;51.986;5.842;2022-10-31T15:54:55;16.10;99.90
46766;DHT22;32527;51.986;5.842;2022-10-31T16:00:28;15.90;99.90
46766;DHT22;32527;51.986;5.842;2022-10-31T16:03:22;15.80;99.90
46766;DHT22;32527;51.986;5.842;2022-10-31T16:16:51;15.70;99.90
46766;DHT22;32527;51.986;5.842;2022-10-31T16:24:24;15.80;99.90
46766;DHT22;32527;51.986;5.842;2022-10-31T16:26:53;15.80;99.90
46766;DHT22;32527;51.986;5.842;2022-10-31T16:36:51;15.60;99.90
46766;DHT22;32527;51.986;5.842;2022-10-31T16:41:54;15.70;99.90
46766;DHT22;32527;51.986;5.842;2022-10-31T16:44:25;15.70;99.90
46766;DHT22;32527;51.986;5.842;2022-10-31T16:51:59;15.40;99.90
46766;DHT22;32527;51.986;5.842;2022-10-31T17:01:46;15.30;99.90
46766;DHT22;32527;51.986;5.842;2022-10-31T17:04:15;15.40;99.90
46766;DHT22;32527;51.986;5.842;2022-10-31T17:06:42;15.10;99.90
46766;DHT22;32527;51.986;5.842;2022-10-31T17:09:08;14.80;99.90
46766;DHT22;32527;51.986;5.842;2022-10-31T17:14:00;14.70;99.90
46766;DHT22;32527;51.986;5.842;2022-10-31T17:16:26;15.00;99.90
46766;DHT22;32527;51.986;5.842;2022-10-31T17:18:52;15.10;99.90
46766;DHT22;32527;51.986;5.842;2022-10-31T17:21:21;15.20;99.90
46766;DHT22;32527;51.986;5.842;2022-10-31T17:23:48;15.00;99.90
46766;DHT22;32527;51.986;5.842;2022-10-31T17:26:14;15.20;99.90
46766;DHT22;32527;51.986;5.842;2022-10-31T17:28:40;15.00;99.90
46766;DHT22;32527;51.986;5.842;2022-10-31T17:31:07;14.90;99.90
46766;DHT22;32527;51.986;5.842;2022-10-31T17:36:02;14.70;99.90
46766;DHT22;32527;51.986;5.842;2022-10-31T17:38:28;14.40;99.90
46766;DHT22;32527;51.986;5.842;2022-10-31T17:40:54;14.70;99.90
46766;DHT22;32527;51.986;5.842;2022-10-31T17:48:12;14.40;99.90
46766;DHT22;32527;51.986;5.842;2022-10-31T17:50:37;14.90;99.90
46766;DHT22;32527;51.986;5.842;2022-10-31T17:55:30;14.80;99.90
46766;DHT22;32527;51.986;5.842;2022-10-31T17:57:56;14.70;99.90
46766;DHT22;32527;51.986;5.842;2022-10-31T18:00:21;14.40;99.90
46766;DHT22;32527;51.986;5.842;2022-10-31T18:02:49;14.60;99.90
46766;DHT22;32527;51.986;5.842;2022-10-31T18:07:41;15.10;99.90
46766;DHT22;32527;51.986;5.842;2022-10-31T18:10:08;14.60;99.90
46766;DHT22;32527;51.986;5.842;2022-10-31T18:12:37;14.40;99.90
46766;DHT22;32527;51.986;5.842;2022-10-31T18:15:03;14.30;99.90
46766;DHT22;32527;51.986;5.842;2022-10-31T18:17:29;14.50;99.90
46766;DHT22;32527;51.986;5.842;2022-10-31T18:19:55;14.70;99.90
46766;DHT22;32527;51.986;5.842;2022-10-31T18:22:20;14.00;99.90
46766;DHT22;32527;51.986;5.842;2022-10-31T18:27:12;14.40;99.90
46766;DHT22;32527;51.986;5.842;2022-10-31T18:29:38;13.90;99.90
46766;DHT22;32527;51.986;5.842;2022-10-31T18:32:04;14.80;99.90
46766;DHT22;32527;51.986;5.842;2022-10-31T18:34:32;14.60;99.90
46766;DHT22;32527;51.986;5.842;2022-10-31T18:36:58;14.50;99.90
46766;DHT22;32527;51.986;5.842;2022-10-31T18:39:23;14.50;99.90
46766;DHT22;32527;51.986;5.842;2022-10-31T18:41:49;14.50;99.90
46766;DHT22;32527;51.986;5.842;2022-10-31T18:46:41;14.30;99.90
46766;DHT22;32527;51.986;5.842;2022-10-31T18:54:00;15.00;99.90
46766;DHT22;32527;51.986;5.842;2022-10-31T18:56:27;14.40;99.90
46766;DHT22;32527;51.986;5.842;2022-10-31T18:58:57;14.50;99.90
46766;DHT22;32527;51.986;5.842;2022-10-31T19:01:25;14.10;99.90
46766;DHT22;32527;51.986;5.842;2022-10-31T19:03:55;14.00;99.90
46766;DHT22;32527;51.986;5.842;2022-10-31T19:06:22;14.90;99.90
46766;DHT22;32527;51.986;5.842;2022-10-31T19:08:48;14.60;99.90
46766;DHT22;32527;51.986;5.842;2022-10-31T19:11:14;14.20;99.90
46766;DHT22;32527;51.986;5.842;2022-10-31T19:13:41;14.00;99.90
46766;DHT22;32527;51.986;5.842;2022-10-31T19:16:14;13.90;99.90
46766;DHT22;32527;51.986;5.842;2022-10-31T19:18:40;14.10;99.90
46766;DHT22;32527;51.986;5.842;2022-10-31T19:21:09;14.10;99.90
46766;DHT22;32527;51.986;5.842;2022-10-31T19:23:35;14.40;99.90
46766;DHT22;32527;51.986;5.842;2022-10-31T19:28:32;14.00;99.90
46766;DHT22;32527;51.986;5.842;2022-10-31T19:33:25;13.90;99.90
46766;DHT22;32527;51.986;5.842;2022-10-31T19:35:57;13.90;99.90
46766;DHT22;32527;51.986;5.842;2022-10-31T19:38:23;13.50;99.90
46766;DHT22;32527;51.986;5.842;2022-10-31T19:40:58;14.20;99.90
46766;DHT22;32527;51.986;5.842;2022-10-31T19:43:24;13.50;99.90
46766;DHT22;32527;51.986;5.842;2022-10-31T19:45:57;13.30;99.90
46766;DHT22;32527;51.986;5.842;2022-10-31T19:48:23;13.70;99.90
46766;DHT22;32527;51.986;5.842;2022-10-31T19:50:50;13.50;99.90
46766;DHT22;32527;51.986;5.842;2022-10-31T19:53:16;13.60;99.90
46766;DHT22;32527;51.986;5.842;2022-10-31T19:55:42;14.00;99.90
46766;DHT22;32527;51.986;5.842;2022-10-31T19:58:08;13.60;99.90
46766;DHT22;32527;51.986;5.842;2022-10-31T20:00:34;14.00;99.90
46766;DHT22;32527;51.986;5.842;2022-10-31T20:02:59;13.20;99.90
46766;DHT22;32527;51.986;5.842;2022-10-31T20:05:25;13.50;99.90
46766;DHT22;32527;51.986;5.842;2022-10-31T20:07:51;13.20;99.90
46766;DHT22;32527;51.986;5.842;2022-10-31T20:10:17;13.80;99.90
46766;DHT22;32527;51.986;5.842;2022-10-31T20:12:42;13.60;99.90
46766;DHT22;32527;51.986;5.842;2022-10-31T20:15:08;13.30;99.90
46766;DHT22;32527;51.986;5.842;2022-10-31T20:17:36;13.40;99.90
46766;DHT22;32527;51.986;5.842;2022-10-31T20:20:02;13.70;99.90
46766;DHT22;32527;51.986;5.842;2022-10-31T20:22:34;13.70;99.90
46766;DHT22;32527;51.986;5.842;2022-10-31T20:25:00;13.30;99.90
46766;DHT22;32527;51.986;5.842;2022-10-31T20:29:52;13.20;99.90
46766;DHT22;32527;51.986;5.842;2022-10-31T20:32:18;13.30;99.90
46766;DHT22;32527;51.986;5.842;2022-10-31T20:37:10;13.40;99.90
46766;DHT22;32527;51.986;5.842;2022-10-31T20:42:03;13.40;99.90
46766;DHT22;32527;51.986;5.842;2022-10-31T20:44:29;13.70;99.90
46766;DHT22;32527;51.986;5.842;2022-10-31T20:46:55;13.40;99.90
46766;DHT22;32527;51.986;5.842;2022-10-31T20:49:20;13.70;99.90
46766;DHT22;32527;51.986;5.842;2022-10-31T20:51:46;13.60;99.90
46766;DHT22;32527;51.986;5.842;2022-10-31T20:54:12;13.40;99.90
46766;DHT22;32527;51.986;5.842;2022-10-31T20:56:38;13.70;99.90
46766;DHT22;32527;51.986;5.842;2022-10-31T21:04:01;13.40;99.90
46766;DHT22;32527;51.986;5.842;2022-10-31T21:06:28;13.40;99.90
46766;DHT22;32527;51.986;5.842;2022-10-31T21:08:54;13.70;99.90
46766;DHT22;32527;51.986;5.842;2022-10-31T21:11:22;13.50;99.90
46766;DHT22;32527;51.986;5.842;2022-10-31T21:13:49;13.90;99.90
46766;DHT22;32527;51.986;5.842;2022-10-31T21:16:18;13.60;99.90
46766;DHT22;32527;51.986;5.842;2022-10-31T21:18:45;13.50;99.90
46766;DHT22;32527;51.986;5.842;2022-10-31T21:21:17;13.30;99.90
46766;DHT22;32527;51.986;5.842;2022-10-31T21:23:44;13.30;99.90
46766;DHT22;32527;51.986;5.842;2022-10-31T21:26:16;14.00;99.90
46766;DHT22;32527;51.986;5.842;2022-10-31T21:31:11;13.50;99.90
46766;DHT22;32527;51.986;5.842;2022-10-31T21:33:38;13.70;99.90
46766;DHT22;32527;51.986;5.842;2022-10-31T21:36:05;13.80;99.90
46766;DHT22;32527;51.986;5.842;2022-10-31T21:38:31;13.80;99.90
46766;DHT22;32527;51.986;5.842;2022-10-31T21:41:03;13.80;99.90
46766;DHT22;32527;51.986;5.842;2022-10-31T21:43:29;13.00;99.90
46766;DHT22;32527;51.986;5.842;2022-10-31T21:46:09;13.50;99.90
46766;DHT22;32527;51.986;5.842;2022-10-31T21:48:36;13.70;99.90
46766;DHT22;32527;51.986;5.842;2022-10-31T21:51:21;13.50;99.90
46766;DHT22;32527;51.986;5.842;2022-10-31T21:53:47;12.90;99.90
46766;DHT22;32527;51.986;5.842;2022-10-31T21:56:40;13.20;99.90